Time;durP1;ratioP1;P1;durP2;ratioP2;P2;SDS_P1;SDS_P2;PMS_P1;PMS_P2;Temp;Humidity;BMP_temperature;BMP_pressure;BME280_temperature;BME280_humidity;BME280_pressure;Samples;Min_cycle;Max_cycle;Signal;HPM_P1;HPM_P2
2022/01/10 00:00:51;;;;;;;1999.90;660.28;;;3.80;99.90;;;;;;5092984;28;20215;-71
2022/01/10 00:03:19;;;;;;;1406.82;219.05;;;3.80;99.90;;;;;;5093357;28;20262;-71
2022/01/10 00:05:46;;;;;;;1146.15;152.00;;;3.80;99.90;;;;;;5093243;28;20225;-71
2022/01/10 00:08:14;;;;;;;22.58;21.17;;;3.90;99.90;;;;;;5093262;28;20201;-72
2022/01/10 00:10:43;;;;;;;20.90;18.90;;;3.90;99.80;;;;;;5093029;28;20230;-72
2022/01/10 00:13:11;;;;;;;23.40;21.45;;;4.00;98.40;;;;;;5093224;28;20248;-72
2022/01/10 00:15:38;;;;;;;21.23;19.58;;;4.10;98.10;;;;;;5093125;28;20317;-72
2022/01/10 00:18:05;;;;;;;20.98;19.23;;;4.00;96.40;;;;;;5093072;28;20582;-71
2022/01/10 00:20:32;;;;;;;21.52;19.60;;;3.90;96.10;;;;;;5092972;28;20218;-71
2022/01/10 00:22:59;;;;;;;21.95;20.45;;;3.80;97.20;;;;;;5093152;28;20559;-72
2022/01/10 00:25:27;;;;;;;21.35;19.75;;;3.80;98.70;;;;;;5093091;28;20214;-71
2022/01/10 00:27:54;;;;;;;21.83;20.35;;;3.80;98.20;;;;;;5092890;28;20202;-72
2022/01/10 00:30:24;;;;;;;22.10;20.30;;;3.90;96.80;;;;;;5092611;28;20306;-72
2022/01/10 00:32:52;;;;;;;21.42;19.83;;;3.90;96.60;;;;;;5093118;28;20205;-72
2022/01/10 00:35:19;;;;;;;21.23;19.75;;;3.90;96.00;;;;;;5092920;28;20227;-72
2022/01/10 00:37:47;;;;;;;24.27;21.00;;;3.90;95.50;;;;;;5092728;28;20198;-72
2022/01/10 00:40:16;;;;;;;20.58;19.17;;;3.90;95.10;;;;;;5092603;28;20586;-71
2022/01/10 00:42:52;;;;;;;22.02;20.50;;;3.80;94.80;;;;;;5092717;28;20768;-72
2022/01/10 00:45:23;;;;;;;21.08;19.67;;;3.80;94.60;;;;;;5092774;28;20218;-72
2022/01/10 00:47:51;;;;;;;23.08;21.33;;;3.80;94.50;;;;;;5092827;28;20206;-72
2022/01/10 00:50:19;;;;;;;22.02;20.27;;;3.80;94.70;;;;;;5092410;28;20226;-72
2022/01/10 00:52:46;;;;;;;20.83;19.40;;;3.80;94.50;;;;;;5092384;28;20290;-72
2022/01/10 00:55:14;;;;;;;22.92;21.25;;;3.80;94.30;;;;;;5092599;28;20206;-72
2022/01/10 00:57:40;;;;;;;203.00;39.30;;;3.80;94.10;;;;;;5092590;28;20239;-72
2022/01/10 01:00:11;;;;;;;21.50;20.00;;;3.80;94.10;;;;;;5092444;28;20696;-72
2022/01/10 01:02:38;;;;;;;22.15;20.65;;;3.70;94.20;;;;;;5092710;28;20202;-72
2022/01/10 01:05:10;;;;;;;23.45;20.85;;;3.70;94.20;;;;;;5092482;28;20664;-72
2022/01/10 01:07:38;;;;;;;22.20;20.73;;;3.70;95.40;;;;;;5092510;28;20564;-72
2022/01/10 01:10:25;;;;;;;21.63;20.13;;;3.60;95.10;;;;;;5092224;28;20218;-72
2022/01/10 01:12:55;;;;;;;22.15;20.65;;;3.60;94.80;;;;;;5092557;28;20568;-72
2022/01/10 01:15:25;;;;;;;22.30;20.70;;;3.70;94.60;;;;;;5092461;28;20191;-72
2022/01/10 01:18:11;;;;;;;22.95;21.35;;;3.70;94.20;;;;;;5092386;28;20245;-72
2022/01/10 01:23:58;;;;;;;22.05;20.40;;;3.70;94.20;;;;;;5092297;28;20219;-72
2022/01/10 01:26:15;;;;;;;21.58;19.92;;;3.70;93.50;;;;;;5092163;28;20272;-72
2022/01/10 01:28:42;;;;;;;22.58;20.48;;;3.70;93.60;;;;;;5092204;28;20206;-71
2022/01/10 01:31:09;;;;;;;21.48;19.77;;;3.70;93.90;;;;;;5092290;28;20320;-71
2022/01/10 01:33:36;;;;;;;20.60;19.30;;;3.60;93.90;;;;;;5092258;28;20201;-71
2022/01/10 01:36:04;;;;;;;21.83;20.33;;;3.60;94.10;;;;;;5092362;28;20192;-72
2022/01/10 01:38:33;;;;;;;22.27;20.77;;;3.60;93.50;;;;;;5092147;28;20613;-72
2022/01/10 01:41:17;;;;;;;22.50;20.90;;;3.40;93.70;;;;;;5091835;28;20223;-72
2022/01/10 01:43:44;;;;;;;22.83;21.35;;;3.40;94.00;;;;;;5092212;28;20294;-72
2022/01/10 01:46:11;;;;;;;22.55;21.05;;;3.30;94.50;;;;;;5092173;28;20219;-72
2022/01/10 01:48:38;;;;;;;22.92;21.42;;;3.40;94.20;;;;;;5092124;28;20589;-72
2022/01/10 01:51:06;;;;;;;22.27;20.67;;;3.50;93.80;;;;;;5095243;28;20211;-72
2022/01/10 01:53:36;;;;;;;22.90;21.10;;;3.50;94.00;;;;;;5095786;28;20201;-72
2022/01/10 01:56:05;;;;;;;23.65;21.85;;;3.50;93.90;;;;;;5095539;28;20695;-72
2022/01/10 01:58:33;;;;;;;23.23;21.33;;;3.50;94.00;;;;;;5095863;28;20260;-72
2022/01/10 02:01:00;;;;;;;23.15;21.58;;;3.50;94.10;;;;;;5095651;28;20225;-71
2022/01/10 02:03:27;;;;;;;22.38;20.85;;;3.50;94.10;;;;;;5095674;28;20203;-71
2022/01/10 02:05:54;;;;;;;23.73;22.02;;;3.50;93.90;;;;;;5095386;28;20237;-72
2022/01/10 02:08:22;;;;;;;21.45;19.92;;;3.50;94.00;;;;;;5095385;28;20718;-72
2022/01/10 02:10:49;;;;;;;22.33;20.40;;;3.40;93.80;;;;;;5095313;28;20229;-72
2022/01/10 02:13:16;;;;;;;22.33;20.83;;;3.30;94.10;;;;;;5095481;28;20191;-72
2022/01/10 02:15:48;;;;;;;22.02;20.52;;;3.30;94.40;;;;;;5095473;28;20286;-72
2022/01/10 02:18:15;;;;;;;22.88;21.00;;;3.40;94.30;;;;;;5095284;28;20196;-72
2022/01/10 02:20:43;;;;;;;22.52;21.00;;;3.50;93.80;;;;;;5094944;28;20587;-72
2022/01/10 02:23:10;;;;;;;22.15;20.50;;;3.70;93.20;;;;;;5095342;28;20198;-72
2022/01/10 02:25:37;;;;;;;21.50;19.90;;;3.70;92.60;;;;;;5095156;28;20215;-72
2022/01/10 02:28:04;;;;;;;21.75;20.45;;;3.70;92.80;;;;;;5095186;28;20664;-72
2022/01/10 02:30:32;;;;;;;22.52;20.73;;;3.70;92.70;;;;;;5094835;28;20226;-71
2022/01/10 02:33:00;;;;;;;22.50;20.80;;;3.70;92.60;;;;;;5094955;28;20222;-72
2022/01/10 02:35:32;;;;;;;21.88;20.33;;;3.70;92.50;;;;;;5095073;28;20195;-72
2022/01/10 02:38:01;;;;;;;22.63;20.92;;;3.60;92.90;;;;;;5094964;28;20191;-72
2022/01/10 02:40:30;;;;;;;22.50;20.90;;;3.30;93.40;;;;;;5094730;28;20216;-72
2022/01/10 02:42:57;;;;;;;21.52;20.02;;;3.30;93.90;;;;;;5094922;28;20249;-72
2022/01/10 02:45:24;;;;;;;21.50;20.00;;;3.10;94.50;;;;;;5094809;28;20199;-72
2022/01/10 02:47:51;;;;;;;22.95;21.20;;;3.20;94.50;;;;;;5094701;28;20202;-72
2022/01/10 02:50:20;;;;;;;21.67;20.13;;;3.30;94.30;;;;;;5094508;28;20546;-72
2022/01/10 02:52:47;;;;;;;22.75;21.15;;;3.30;94.20;;;;;;5094555;28;20196;-72
2022/01/10 02:55:16;;;;;;;21.45;19.95;;;3.40;94.00;;;;;;5094647;28;20699;-72
2022/01/10 02:57:43;;;;;;;21.27;19.77;;;3.40;93.90;;;;;;5094493;28;20203;-72
2022/01/10 03:00:13;;;;;;;21.27;19.75;;;3.40;94.20;;;;;;5094366;28;20611;-72
2022/01/10 03:02:42;;;;;;;23.42;21.77;;;3.40;94.30;;;;;;5094461;28;20686;-72
2022/01/10 03:05:10;;;;;;;22.38;20.88;;;3.50;93.80;;;;;;5094616;28;20207;-72
2022/01/10 03:07:37;;;;;;;22.38;20.90;;;3.50;93.50;;;;;;5094260;28;20223;-72
2022/01/10 03:10:05;;;;;;;23.58;21.90;;;3.40;93.60;;;;;;5094119;28;20311;-72
2022/01/10 03:12:34;;;;;;;22.85;21.33;;;3.50;93.60;;;;;;5094490;28;20205;-72
2022/01/10 03:15:02;;;;;;;23.88;21.98;;;3.60;93.90;;;;;;5094182;28;20198;-71
2022/01/10 03:17:29;;;;;;;22.50;20.83;;;3.50;93.90;;;;;;5094297;28;20198;-72
2022/01/10 03:19:56;;;;;;;22.83;21.33;;;3.50;94.20;;;;;;5093880;28;20219;-71
2022/01/10 03:22:23;;;;;;;24.42;22.70;;;3.40;94.00;;;;;;5094249;28;20217;-71
2022/01/10 03:24:50;;;;;;;24.35;22.60;;;3.40;94.20;;;;;;5094031;28;20202;-71
2022/01/10 03:27:17;;;;;;;22.52;21.13;;;3.50;94.20;;;;;;5093987;28;20223;-71
2022/01/10 03:29:45;;;;;;;22.67;20.98;;;3.60;93.70;;;;;;5093883;28;20222;-72
2022/01/10 03:32:12;;;;;;;22.50;20.88;;;3.40;94.00;;;;;;5094197;28;20286;-72
2022/01/10 03:34:39;;;;;;;22.63;20.83;;;3.50;94.00;;;;;;5093995;28;20289;-72
2022/01/10 03:37:07;;;;;;;1999.90;597.17;;;3.60;93.70;;;;;;5093889;28;20274;-72
2022/01/10 03:39:35;;;;;;;92.05;29.63;;;3.60;96.50;;;;;;5093461;28;20219;-72
2022/01/10 03:42:02;;;;;;;21.58;19.92;;;3.70;97.50;;;;;;5093535;28;20203;-72
2022/01/10 03:44:29;;;;;;;22.50;20.48;;;3.70;96.90;;;;;;5093659;28;20283;-72
2022/01/10 03:46:57;;;;;;;21.52;19.92;;;3.80;95.40;;;;;;5093501;28;20221;-72
2022/01/10 03:49:24;;;;;;;22.02;20.45;;;3.70;94.60;;;;;;5093353;28;20306;-72
2022/01/10 03:51:51;;;;;;;23.58;21.45;;;3.70;94.20;;;;;;5093262;28;20203;-72
2022/01/10 03:54:18;;;;;;;21.77;20.35;;;3.70;93.90;;;;;;5093428;28;20198;-72
2022/01/10 03:56:47;;;;;;;22.60;21.20;;;3.80;93.70;;;;;;5093476;28;20195;-71
2022/01/10 03:59:13;;;;;;;23.67;22.10;;;3.80;93.40;;;;;;5093141;28;20211;-71
2022/01/10 04:01:40;;;;;;;22.80;20.98;;;3.70;93.60;;;;;;5093505;28;20203;-72
2022/01/10 04:04:09;;;;;;;22.38;20.83;;;3.70;93.80;;;;;;5093336;28;20227;-72
2022/01/10 04:06:36;;;;;;;23.10;21.10;;;3.70;95.50;;;;;;5093084;28;20759;-72
2022/01/10 04:09:04;;;;;;;23.63;22.02;;;3.70;94.30;;;;;;5092927;28;20215;-72
2022/01/10 04:11:31;;;;;;;24.65;22.77;;;3.70;94.30;;;;;;5093114;28;20199;-72
2022/01/10 04:13:58;;;;;;;24.10;22.60;;;3.70;93.90;;;;;;5092967;28;20594;-72
2022/01/10 04:16:25;;;;;;;22.02;20.42;;;3.50;93.90;;;;;;5093208;28;20196;-72
2022/01/10 04:18:52;;;;;;;59.75;23.75;;;3.50;94.20;;;;;;5093040;28;20675;-72
2022/01/10 04:21:20;;;;;;;22.65;20.17;;;3.40;94.70;;;;;;5092950;28;20241;-72
2022/01/10 04:23:47;;;;;;;23.95;21.92;;;3.50;95.30;;;;;;5092983;28;20195;-72
2022/01/10 04:26:14;;;;;;;23.77;21.48;;;3.60;94.90;;;;;;5092924;28;20314;-72
2022/01/10 04:28:41;;;;;;;23.38;21.67;;;3.70;94.60;;;;;;5092830;28;20205;-72
2022/01/10 04:31:10;;;;;;;24.35;22.38;;;3.80;94.10;;;;;;5092977;28;20202;-72
2022/01/10 04:33:37;;;;;;;23.40;21.75;;;3.80;93.90;;;;;;5092927;28;20195;-71
2022/01/10 04:36:05;;;;;;;25.98;24.05;;;3.70;93.90;;;;;;5092888;28;20290;-71
2022/01/10 04:38:34;;;;;;;25.05;23.20;;;3.80;93.80;;;;;;5092880;28;20195;-72
2022/01/10 04:41:01;;;;;;;24.80;22.83;;;3.90;92.90;;;;;;5092504;28;20223;-72
2022/01/10 04:43:28;;;;;;;23.95;22.05;;;3.90;92.50;;;;;;5092808;28;20195;-72
2022/01/10 04:45:55;;;;;;;26.77;24.48;;;3.90;92.60;;;;;;5092817;28;20199;-72
2022/01/10 04:48:22;;;;;;;26.73;24.75;;;3.80;92.70;;;;;;5092619;28;20199;-72
2022/01/10 04:51:11;;;;;;;24.65;22.90;;;3.70;93.00;;;;;;5092343;28;20345;-72
2022/01/10 04:53:40;;;;;;;26.17;24.20;;;3.70;93.20;;;;;;5092582;28;20195;-72
2022/01/10 04:56:07;;;;;;;25.83;23.80;;;3.60;93.60;;;;;;5092635;28;20572;-72
2022/01/10 04:58:35;;;;;;;25.98;23.88;;;3.60;93.40;;;;;;5092707;28;20246;-72
2022/01/10 05:01:03;;;;;;;25.35;23.42;;;3.60;93.70;;;;;;5092361;28;20226;-72
2022/01/10 05:03:31;;;;;;;26.35;23.80;;;3.70;93.40;;;;;;5092740;28;20715;-72
2022/01/10 05:05:58;;;;;;;26.50;24.13;;;3.90;92.90;;;;;;5092639;28;20194;-71
2022/01/10 05:08:25;;;;;;;26.80;23.98;;;3.70;92.80;;;;;;5092463;28;20211;-71
2022/01/10 05:10:54;;;;;;;26.48;24.23;;;3.70;93.00;;;;;;5092413;28;20219;-71
2022/01/10 05:13:22;;;;;;;27.77;25.58;;;3.70;93.50;;;;;;5092444;28;20199;-71
2022/01/10 05:15:50;;;;;;;26.33;23.83;;;3.80;93.10;;;;;;5092573;28;20199;-71
2022/01/10 05:18:18;;;;;;;26.67;24.23;;;3.80;92.40;;;;;;5092441;28;20207;-72
2022/01/10 05:20:45;;;;;;;27.30;24.70;;;3.80;93.00;;;;;;5092297;28;20619;-72
2022/01/10 05:23:11;;;;;;;26.10;23.70;;;3.70;93.00;;;;;;5092558;28;20192;-72
2022/01/10 05:25:40;;;;;;;28.00;25.60;;;3.80;93.00;;;;;;5095423;28;20202;-71
2022/01/10 05:28:10;;;;;;;29.08;26.55;;;3.80;93.30;;;;;;5096139;28;20361;-72
2022/01/10 05:30:38;;;;;;;28.67;26.42;;;3.80;93.30;;;;;;5096104;28;20249;-72
2022/01/10 05:33:07;;;;;;;27.75;25.23;;;3.90;93.10;;;;;;5096395;28;20195;-72
2022/01/10 05:35:35;;;;;;;75.10;31.15;;;4.00;92.70;;;;;;5096205;28;20210;-72
2022/01/10 05:38:02;;;;;;;28.80;26.45;;;4.00;94.70;;;;;;5096179;28;20551;-72
2022/01/10 05:40:29;;;;;;;31.25;28.40;;;4.10;95.20;;;;;;5095746;28;20243;-72
2022/01/10 05:42:56;;;;;;;27.77;25.30;;;4.10;93.80;;;;;;5096023;28;20290;-72
2022/01/10 05:45:24;;;;;;;27.75;25.38;;;4.00;92.80;;;;;;5095995;28;20201;-72
2022/01/10 05:47:51;;;;;;;28.88;26.38;;;3.90;92.90;;;;;;5095937;28;20225;-72
2022/01/10 05:50:31;;;;;;;26.30;24.25;;;3.90;92.90;;;;;;5095702;28;20215;-72
2022/01/10 05:52:58;;;;;;;30.48;27.88;;;3.90;92.40;;;;;;5095447;28;20676;-72
2022/01/10 05:55:25;;;;;;;28.15;25.73;;;3.80;93.10;;;;;;5095895;28;20194;-72
2022/01/10 05:57:52;;;;;;;28.55;26.42;;;4.00;93.00;;;;;;5095616;28;20198;-72
2022/01/10 06:00:19;;;;;;;29.92;27.20;;;4.00;92.80;;;;;;5095457;28;20310;-72
2022/01/10 06:02:47;;;;;;;28.80;26.50;;;3.90;92.50;;;;;;5095749;28;20205;-72
2022/01/10 06:05:14;;;;;;;28.80;26.40;;;4.00;92.90;;;;;;5095563;28;20203;-72
2022/01/10 06:07:42;;;;;;;29.65;27.27;;;3.90;92.70;;;;;;5095396;28;20219;-72
2022/01/10 06:10:09;;;;;;;29.38;27.08;;;4.00;93.00;;;;;;5095392;28;20215;-72
2022/01/10 06:12:36;;;;;;;27.95;25.60;;;3.90;92.60;;;;;;5095606;28;20196;-72
2022/01/10 06:15:03;;;;;;;28.63;26.30;;;3.90;92.90;;;;;;5095508;28;20201;-72
2022/01/10 06:17:30;;;;;;;30.38;27.95;;;3.90;92.40;;;;;;5095384;28;20278;-72
2022/01/10 06:20:00;;;;;;;29.20;26.35;;;3.90;92.50;;;;;;5094884;28;20215;-72
2022/01/10 06:22:27;;;;;;;28.25;25.65;;;3.80;92.70;;;;;;5095292;28;20206;-72
2022/01/10 06:24:55;;;;;;;29.40;26.15;;;3.80;92.80;;;;;;5095364;28;20583;-72
2022/01/10 06:27:22;;;;;;;30.02;27.27;;;3.80;93.20;;;;;;5095053;28;20241;-72
2022/01/10 06:29:49;;;;;;;29.70;27.20;;;3.90;93.10;;;;;;5094913;28;20226;-72
2022/01/10 06:32:16;;;;;;;29.10;26.45;;;3.90;92.70;;;;;;5095275;28;20201;-73
2022/01/10 06:34:43;;;;;;;29.95;27.30;;;4.00;92.50;;;;;;5094837;28;20652;-72
2022/01/10 06:37:11;;;;;;;31.15;28.83;;;3.90;92.50;;;;;;5095014;28;20202;-72
2022/01/10 06:39:38;;;;;;;29.48;26.88;;;3.70;93.00;;;;;;5094662;28;20226;-72
2022/01/10 06:42:06;;;;;;;31.55;28.45;;;3.60;93.60;;;;;;5094745;28;20731;-72
2022/01/10 06:44:33;;;;;;;30.88;27.88;;;3.70;94.20;;;;;;5094893;28;20195;-72
2022/01/10 06:47:00;;;;;;;33.50;30.48;;;3.70;93.80;;;;;;5094780;28;20213;-72
2022/01/10 06:49:27;;;;;;;27.80;25.50;;;3.70;93.50;;;;;;5094440;28;20298;-72
2022/01/10 06:51:53;;;;;;;33.33;30.25;;;3.70;93.50;;;;;;5094653;28;20202;-72
2022/01/10 06:54:22;;;;;;;30.58;27.98;;;3.70;93.80;;;;;;5095026;28;20190;-72
2022/01/10 06:56:49;;;;;;;34.38;31.27;;;3.90;92.80;;;;;;5094635;28;20218;-72
2022/01/10 06:59:15;;;;;;;31.23;28.38;;;3.90;92.40;;;;;;5094302;28;20850;-72
2022/01/10 07:01:42;;;;;;;33.38;30.23;;;3.70;93.30;;;;;;5094356;28;20625;-72
2022/01/10 07:04:10;;;;;;;34.17;30.60;;;3.80;93.50;;;;;;5094457;28;20205;-72
2022/01/10 07:06:38;;;;;;;32.75;29.60;;;3.60;94.00;;;;;;5094381;28;20199;-72
2022/01/10 07:09:05;;;;;;;31.20;28.20;;;3.70;94.30;;;;;;5094213;28;20215;-72
2022/01/10 07:11:33;;;;;;;31.70;28.70;;;3.60;94.40;;;;;;5094464;28;20203;-73
2022/01/10 07:14:00;;;;;;;29.02;26.27;;;3.70;95.00;;;;;;5094215;28;20229;-72
2022/01/10 07:16:27;;;;;;;32.65;29.10;;;3.70;94.40;;;;;;5094270;28;20191;-72
2022/01/10 07:18:54;;;;;;;34.00;30.40;;;3.70;94.60;;;;;;5094052;28;20667;-72
2022/01/10 07:21:21;;;;;;;34.28;30.92;;;3.70;94.40;;;;;;5094058;28;20726;-72
2022/01/10 07:23:49;;;;;;;33.35;30.20;;;3.70;94.40;;;;;;5094178;28;20198;-73
2022/01/10 07:26:16;;;;;;;31.67;28.52;;;3.70;94.60;;;;;;5093990;28;20199;-72
2022/01/10 07:28:44;;;;;;;32.75;29.70;;;3.80;94.70;;;;;;5093700;28;20215;-72
2022/01/10 07:31:11;;;;;;;34.42;30.90;;;3.70;94.40;;;;;;5093739;28;20668;-72
2022/01/10 07:33:38;;;;;;;35.63;31.38;;;3.80;94.50;;;;;;5093893;28;20283;-72
2022/01/10 07:36:05;;;;;;;36.85;32.90;;;3.80;94.20;;;;;;5093765;28;20197;-72
2022/01/10 07:38:35;;;;;;;38.65;31.33;;;3.90;94.20;;;;;;5093789;28;20572;-72
2022/01/10 07:41:02;;;;;;;35.20;32.10;;;3.60;94.20;;;;;;5093511;28;20273;-72
2022/01/10 07:43:29;;;;;;;34.30;31.13;;;3.60;94.30;;;;;;5093834;28;20214;-73
2022/01/10 07:45:58;;;;;;;35.30;31.60;;;3.60;94.10;;;;;;5093731;28;20205;-72
2022/01/10 07:48:26;;;;;;;29.25;26.52;;;3.60;94.60;;;;;;5092734;28;20222;-72
2022/01/10 07:50:53;;;;;;;31.05;28.13;;;3.50;94.60;;;;;;5093158;28;20696;-72
2022/01/10 07:53:20;;;;;;;38.78;30.23;;;3.40;94.40;;;;;;5093556;28;20293;-72
2022/01/10 07:55:48;;;;;;;230.40;50.28;;;3.40;95.60;;;;;;5093664;28;20211;-72
2022/01/10 07:58:16;;;;;;;31.48;28.38;;;3.40;95.60;;;;;;5093073;28;20205;-72
2022/01/10 08:00:43;;;;;;;32.17;29.27;;;3.30;95.20;;;;;;5093208;28;20219;-72
2022/01/10 08:03:12;;;;;;;31.02;28.77;;;3.40;95.00;;;;;;5093657;28;20222;-72
2022/01/10 08:05:38;;;;;;;30.65;27.95;;;3.40;95.10;;;;;;5093259;28;20191;-72
2022/01/10 08:08:05;;;;;;;31.33;28.60;;;3.50;94.80;;;;;;5093338;28;20229;-72
2022/01/10 08:10:32;;;;;;;36.08;30.35;;;3.50;94.00;;;;;;5092887;28;20221;-72
2022/01/10 08:12:59;;;;;;;31.95;29.35;;;3.50;94.40;;;;;;5093361;28;20223;-72
2022/01/10 08:15:26;;;;;;;32.30;29.40;;;3.40;94.30;;;;;;5093250;28;20199;-72
2022/01/10 08:17:53;;;;;;;31.67;28.92;;;3.50;94.90;;;;;;5093132;28;20287;-72
2022/01/10 08:20:21;;;;;;;28.20;25.98;;;3.50;93.90;;;;;;5093078;28;20237;-73
2022/01/10 08:22:48;;;;;;;31.65;29.08;;;3.70;93.70;;;;;;5093124;28;20203;-72
2022/01/10 08:25:15;;;;;;;33.00;30.30;;;3.70;93.60;;;;;;5092963;28;20201;-73
2022/01/10 08:27:42;;;;;;;77.60;30.70;;;3.80;93.90;;;;;;5092926;28;20711;-73
2022/01/10 08:30:10;;;;;;;29.98;27.42;;;3.80;93.60;;;;;;5092807;28;20572;-73
2022/01/10 08:32:37;;;;;;;34.05;30.95;;;3.70;92.70;;;;;;5093008;28;20206;-73
2022/01/10 08:35:06;;;;;;;31.98;28.88;;;3.60;93.80;;;;;;5092941;28;20191;-73
2022/01/10 08:37:34;;;;;;;34.10;31.00;;;3.60;94.00;;;;;;5092858;28;20191;-72
2022/01/10 08:40:01;;;;;;;33.80;30.75;;;3.60;93.80;;;;;;5092599;28;20227;-72
2022/01/10 08:42:28;;;;;;;31.95;28.90;;;3.70;93.70;;;;;;5092876;28;20712;-72
2022/01/10 08:44:55;;;;;;;32.72;30.00;;;3.80;93.60;;;;;;5092853;28;20198;-72
2022/01/10 08:47:22;;;;;;;35.33;31.73;;;3.70;93.50;;;;;;5092739;28;20202;-72
2022/01/10 08:49:50;;;;;;;35.65;32.42;;;3.70;93.40;;;;;;5092467;28;20225;-72
2022/01/10 08:52:17;;;;;;;33.67;30.75;;;3.60;93.60;;;;;;5092391;28;20209;-72
2022/01/10 08:54:47;;;;;;;34.63;31.60;;;3.50;93.60;;;;;;5092654;28;20195;-72
2022/01/10 08:57:14;;;;;;;33.75;31.13;;;3.60;94.20;;;;;;5092597;28;20201;-72
2022/01/10 08:59:41;;;;;;;35.72;32.55;;;3.50;94.00;;;;;;5095652;28;20217;-72
2022/01/10 09:02:08;;;;;;;34.70;31.60;;;3.60;94.40;;;;;;5096933;28;20201;-72
2022/01/10 09:04:35;;;;;;;34.90;31.60;;;3.60;93.50;;;;;;5096668;28;20199;-73
2022/01/10 09:07:03;;;;;;;32.20;29.30;;;3.70;93.90;;;;;;5096694;28;20201;-72
2022/01/10 09:09:30;;;;;;;34.28;31.00;;;3.70;93.80;;;;;;5096363;28;20588;-72
2022/01/10 09:11:58;;;;;;;33.75;31.05;;;3.90;93.40;;;;;;5096609;28;20244;-72
2022/01/10 09:14:25;;;;;;;34.65;31.65;;;3.90;92.80;;;;;;5096585;28;20698;-72
2022/01/10 09:16:52;;;;;;;34.92;31.70;;;3.80;92.60;;;;;;5096341;28;20211;-72
2022/01/10 09:19:19;;;;;;;33.42;30.23;;;3.80;93.10;;;;;;5096309;28;20208;-72
2022/01/10 09:21:47;;;;;;;34.03;31.05;;;3.90;92.80;;;;;;5096448;28;20200;-71
2022/01/10 09:24:14;;;;;;;34.97;31.85;;;4.00;92.30;;;;;;5096482;28;20203;-71
2022/01/10 09:26:42;;;;;;;36.33;32.85;;;3.90;91.80;;;;;;5096410;28;20687;-71
2022/01/10 09:29:10;;;;;;;33.70;30.67;;;4.00;91.80;;;;;;5095903;28;20223;-71
2022/01/10 09:31:37;;;;;;;34.83;31.67;;;4.10;91.70;;;;;;5096227;28;20286;-71
2022/01/10 09:34:04;;;;;;;35.38;32.53;;;4.30;91.30;;;;;;5096175;28;20277;-71
2022/01/10 09:36:34;;;;;;;35.17;31.73;;;4.40;91.00;;;;;;5096122;28;20674;-71
2022/01/10 09:39:02;;;;;;;35.80;32.80;;;4.40;90.20;;;;;;5095900;28;20198;-72
2022/01/10 09:41:29;;;;;;;34.35;31.25;;;4.50;89.70;;;;;;5095837;28;20207;-71
2022/01/10 09:43:59;;;;;;;36.28;33.13;;;4.40;89.80;;;;;;5096018;28;20199;-71
2022/01/10 09:46:29;;;;;;;34.72;31.30;;;4.50;90.00;;;;;;5095959;28;20294;-71
2022/01/10 09:48:57;;;;;;;36.95;33.25;;;4.70;89.50;;;;;;5095852;28;20215;-71
2022/01/10 09:51:27;;;;;;;34.00;31.10;;;4.70;88.30;;;;;;5095751;28;20222;-72
2022/01/10 09:53:54;;;;;;;35.70;32.05;;;4.50;89.00;;;;;;5095972;28;20741;-72
2022/01/10 09:56:21;;;;;;;34.40;31.58;;;4.60;89.40;;;;;;5095703;28;20556;-72
2022/01/10 09:58:50;;;;;;;34.47;31.40;;;4.80;88.90;;;;;;5095609;28;20559;-71
2022/01/10 10:01:18;;;;;;;35.38;31.83;;;4.90;88.60;;;;;;5095535;28;20203;-71
2022/01/10 10:03:47;;;;;;;34.28;31.17;;;4.90;87.90;;;;;;5095845;28;20285;-71
2022/01/10 10:06:15;;;;;;;34.17;31.27;;;4.80;88.10;;;;;;5095575;28;20606;-72
2022/01/10 10:08:43;;;;;;;37.92;34.13;;;4.90;87.60;;;;;;5095365;28;20219;-72
2022/01/10 10:11:10;;;;;;;36.25;32.95;;;4.80;88.00;;;;;;5094598;28;20691;-72
2022/01/10 10:13:43;;;;;;;35.65;32.08;;;4.90;87.90;;;;;;5095299;28;20205;-71
2022/01/10 10:16:14;;;;;;;38.33;34.47;;;4.90;87.90;;;;;;5095425;28;20202;-72
2022/01/10 10:18:43;;;;;;;34.70;31.50;;;5.00;88.40;;;;;;5095304;28;20199;-72
2022/01/10 10:21:16;;;;;;;36.60;33.40;;;5.20;87.00;;;;;;5095253;28;20657;-72
2022/01/10 10:23:46;;;;;;;35.22;32.22;;;5.30;86.70;;;;;;5095190;28;20199;-71
2022/01/10 10:26:17;;;;;;;34.50;31.85;;;5.40;85.90;;;;;;5095336;28;20223;-72
2022/01/10 10:28:46;;;;;;;34.00;31.27;;;5.40;85.70;;;;;;5095118;28;20306;-71
2022/01/10 10:31:13;;;;;;;35.17;32.20;;;5.60;84.90;;;;;;5095037;28;20195;-72
2022/01/10 10:33:48;;;;;;;36.55;32.92;;;5.60;86.10;;;;;;5095044;28;20191;-71
2022/01/10 10:36:17;;;;;;;33.60;30.80;;;5.60;84.90;;;;;;5095059;28;20202;-71
2022/01/10 10:38:45;;;;;;;34.10;31.48;;;5.60;85.60;;;;;;5094961;28;20226;-72
2022/01/10 10:41:12;;;;;;;35.42;32.33;;;5.60;84.40;;;;;;5094780;28;20278;-72
2022/01/10 10:43:41;;;;;;;40.13;36.25;;;5.60;84.10;;;;;;5094921;28;20551;-71
2022/01/10 10:46:14;;;;;;;38.42;34.72;;;5.70;83.90;;;;;;5094894;28;20211;-72
2022/01/10 10:48:44;;;;;;;34.60;31.80;;;5.70;86.60;;;;;;5094717;28;20220;-71
2022/01/10 10:51:11;;;;;;;35.78;32.47;;;5.90;83.90;;;;;;5094496;28;20195;-71
2022/01/10 10:53:40;;;;;;;36.20;33.20;;;5.80;82.50;;;;;;5094688;28;20214;-71
2022/01/10 10:56:08;;;;;;;33.70;31.13;;;5.70;84.20;;;;;;5094567;28;20195;-72
2022/01/10 10:58:36;;;;;;;35.03;32.13;;;5.60;84.10;;;;;;5094569;28;20202;-71
2022/01/10 11:01:04;;;;;;;34.05;30.35;;;5.60;85.30;;;;;;5094424;28;20219;-72
2022/01/10 11:03:31;;;;;;;38.28;35.08;;;5.90;84.40;;;;;;5094409;28;20226;-71
2022/01/10 11:05:59;;;;;;;35.10;32.28;;;5.80;84.70;;;;;;5094450;28;20294;-71
2022/01/10 11:08:28;;;;;;;35.33;32.63;;;5.90;86.30;;;;;;5094254;28;20264;-71
2022/01/10 11:10:57;;;;;;;252.75;49.28;;;5.70;85.50;;;;;;5094242;28;20226;-71
2022/01/10 11:13:24;;;;;;;70.15;36.58;;;5.70;85.30;;;;;;5094392;28;20565;-71
2022/01/10 11:15:53;;;;;;;32.42;29.75;;;5.80;85.50;;;;;;5094362;28;20625;-72
2022/01/10 11:18:21;;;;;;;35.55;32.58;;;5.80;83.90;;;;;;5094150;28;20664;-72
2022/01/10 11:20:49;;;;;;;34.75;31.95;;;5.90;82.80;;;;;;5093885;28;20215;-72
2022/01/10 11:23:16;;;;;;;34.40;32.00;;;6.00;83.00;;;;;;5093286;28;20191;-72
2022/01/10 11:25:44;;;;;;;34.63;31.92;;;6.20;82.10;;;;;;5093987;28;20203;-72
2022/01/10 11:28:21;;;;;;;34.28;31.25;;;6.30;81.00;;;;;;5093883;28;20278;-71
2022/01/10 11:30:49;;;;;;;34.33;31.88;;;6.60;81.10;;;;;;5093802;28;20246;-72
2022/01/10 11:33:17;;;;;;;35.90;33.25;;;6.80;79.70;;;;;;5094033;28;20355;-71
2022/01/10 11:35:46;;;;;;;34.97;31.83;;;6.80;80.70;;;;;;5093831;28;20201;-72
2022/01/10 11:38:26;;;;;;;48.22;33.20;;;6.80;81.40;;;;;;5093866;28;20286;-71
2022/01/10 11:40:55;;;;;;;34.90;31.90;;;7.00;81.00;;;;;;5093551;28;20211;-72
2022/01/10 11:43:33;;;;;;;36.33;33.13;;;7.00;80.10;;;;;;5093801;28;20291;-72
2022/01/10 11:46:13;;;;;;;33.97;31.23;;;7.00;78.80;;;;;;5093709;28;20191;-72
2022/01/10 11:48:46;;;;;;;33.28;30.38;;;7.10;78.50;;;;;;5093670;28;20226;-72
2022/01/10 11:51:14;;;;;;;35.88;33.25;;;7.30;78.10;;;;;;5093366;28;20671;-72
2022/01/10 11:53:44;;;;;;;35.67;32.97;;;7.30;77.80;;;;;;5093437;28;20563;-71
2022/01/10 11:56:27;;;;;;;37.90;34.63;;;7.30;78.70;;;;;;5093370;28;20644;-72
2022/01/10 11:59:18;;;;;;;37.03;33.85;;;7.50;77.60;;;;;;5093471;28;20282;-72
2022/01/10 12:01:47;;;;;;;34.92;32.22;;;7.40;80.80;;;;;;5093459;28;20206;-72
2022/01/10 12:04:15;;;;;;;36.70;33.42;;;7.50;78.80;;;;;;5093381;28;20241;-72
2022/01/10 12:06:42;;;;;;;35.40;32.70;;;7.60;78.40;;;;;;5093343;28;20199;-72
2022/01/10 12:09:09;;;;;;;34.42;31.25;;;7.60;80.50;;;;;;5093110;28;20723;-72
2022/01/10 12:11:39;;;;;;;34.70;31.95;;;7.60;82.70;;;;;;5093376;28;20196;-72
2022/01/10 12:14:07;;;;;;;43.75;34.97;;;7.60;79.80;;;;;;5093214;28;20232;-72
2022/01/10 12:16:36;;;;;;;35.47;32.30;;;7.70;79.60;;;;;;5093190;28;20233;-72
2022/01/10 12:19:04;;;;;;;34.72;31.75;;;7.70;82.10;;;;;;5092857;28;20207;-71
2022/01/10 12:21:32;;;;;;;35.17;32.45;;;7.70;78.90;;;;;;5093060;28;20201;-72
2022/01/10 12:23:59;;;;;;;34.92;32.38;;;7.60;77.80;;;;;;5092953;28;20195;-72
2022/01/10 12:26:28;;;;;;;37.80;34.60;;;7.50;77.20;;;;;;5092924;28;20195;-72
2022/01/10 12:28:56;;;;;;;35.50;32.72;;;7.40;77.70;;;;;;5092708;28;20308;-72
2022/01/10 12:31:26;;;;;;;34.38;31.42;;;7.30;78.40;;;;;;5092721;28;20605;-72
2022/01/10 12:33:55;;;;;;;35.92;33.30;;;7.20;76.40;;;;;;5092613;28;20195;-72
2022/01/10 12:36:23;;;;;;;35.70;32.53;;;6.70;77.60;;;;;;5092910;28;20682;-72
2022/01/10 12:38:51;;;;;;;35.78;33.03;;;6.50;83.50;;;;;;5092706;28;20616;-71
2022/01/10 12:41:20;;;;;;;34.28;31.42;;;6.60;81.80;;;;;;5092619;28;20290;-72
2022/01/10 12:43:50;;;;;;;35.90;32.55;;;6.70;81.10;;;;;;5092865;28;20219;-73